Time;durP1;ratioP1;P1;durP2;ratioP2;P2;SDS_P1;SDS_P2;PMS_P1;PMS_P2;Temp;Humidity;BMP_temperature;BMP_pressure;BME280_temperature;BME280_humidity;BME280_pressure;Samples;Min_cycle;Max_cycle;Signal;HPM_P1;HPM_P2
2023/09/22 00:00:15;;;;;;;11.07;3.83;;;;;;;;;;5055605;28;20053;-60
2023/09/22 00:02:43;;;;;;;8.00;3.58;;;;;;;;;;5051214;28;20049;-60
2023/09/22 00:05:12;;;;;;;7.10;3.42;;;;;;;;;;5062695;28;20496;-60
2023/09/22 00:07:38;;;;;;;7.38;3.90;;;;;;;;;;5043019;28;20527;-59
2023/09/22 00:10:06;;;;;;;7.40;4.25;;;;;;;;;;5059799;28;20511;-60
2023/09/22 00:12:32;;;;;;;8.90;4.00;;;;;;;;;;5061699;28;20057;-61
2023/09/22 00:14:59;;;;;;;13.30;4.60;;;;;;;;;;5062262;28;20146;-59
2023/09/22 00:17:27;;;;;;;10.98;5.93;;;;;;;;;;5052175;28;20107;-60
2023/09/22 00:19:54;;;;;;;10.35;7.50;;;;;;;;;;5059979;28;20057;-59
2023/09/22 00:22:20;;;;;;;14.02;7.47;;;;;;;;;;5069174;28;20613;-59
2023/09/22 00:24:47;;;;;;;14.43;8.73;;;;;;;;;;5065147;28;20080;-59
2023/09/22 00:27:15;;;;;;;14.93;9.35;;;;;;;;;;5063470;28;20510;-60
2023/09/22 00:29:42;;;;;;;17.52;10.27;;;;;;;;;;5065732;28;20276;-59
2023/09/22 00:32:10;;;;;;;14.88;10.60;;;;;;;;;;5064019;28;20214;-59
2023/09/22 00:34:37;;;;;;;13.90;10.13;;;;;;;;;;5057733;28;20507;-59
2023/09/22 00:37:03;;;;;;;17.40;10.65;;;;;;;;;;5048745;28;20049;-59
2023/09/22 00:39:30;;;;;;;18.55;10.85;;;;;;;;;;5066246;28;20057;-59
2023/09/22 00:41:57;;;;;;;19.55;10.95;;;;;;;;;;5058802;28;20053;-60
2023/09/22 00:44:24;;;;;;;19.60;11.70;;;;;;;;;;5057336;28;20061;-60
2023/09/22 00:46:51;;;;;;;20.48;11.40;;;;;;;;;;5065145;28;20052;-60
2023/09/22 00:49:18;;;;;;;20.63;12.18;;;;;;;;;;5065396;28;20507;-60
2023/09/22 00:51:45;;;;;;;20.02;12.60;;;;;;;;;;5064972;28;20088;-60
2023/09/22 00:54:11;;;;;;;21.88;12.57;;;;;;;;;;5065135;28;20053;-60
2023/09/22 00:56:38;;;;;;;18.75;11.80;;;;;;;;;;5051070;28;20148;-60
2023/09/22 00:59:07;;;;;;;19.48;11.52;;;;;;;;;;5064883;28;20057;-60
2023/09/22 01:01:34;;;;;;;18.33;11.27;;;;;;;;;;5063145;28;20106;-60
2023/09/22 01:04:01;;;;;;;14.73;10.55;;;;;;;;;;5064526;28;20053;-59
2023/09/22 01:06:29;;;;;;;16.33;11.57;;;;;;;;;;5064872;28;20255;-59
2023/09/22 01:08:56;;;;;;;15.82;10.27;;;;;;;;;;5063293;28;20052;-59
2023/09/22 01:11:22;;;;;;;18.05;11.73;;;;;;;;;;5064252;28;20427;-60
2023/09/22 01:13:49;;;;;;;17.27;10.65;;;;;;;;;;5054058;28;20053;-57
2023/09/22 01:16:15;;;;;;;15.77;10.32;;;;;;;;;;5057466;28;20056;-60
2023/09/22 01:18:42;;;;;;;16.77;10.88;;;;;;;;;;5065259;28;20143;-60
2023/09/22 01:21:08;;;;;;;15.10;11.05;;;;;;;;;;5064661;28;20670;-59
2023/09/22 01:23:35;;;;;;;14.90;10.65;;;;;;;;;;5052618;28;20057;-59
2023/09/22 01:26:02;;;;;;;16.25;11.52;;;;;;;;;;5059635;28;20057;-60
2023/09/22 01:28:28;;;;;;;14.57;11.50;;;;;;;;;;5050618;28;20049;-60
2023/09/22 01:30:54;;;;;;;17.48;11.90;;;;;;;;;;5061700;28;20507;-58
2023/09/22 01:33:21;;;;;;;18.83;12.27;;;;;;;;;;5044727;28;20157;-59
2023/09/22 01:35:47;;;;;;;18.60;11.98;;;;;;;;;;5059500;28;20585;-59
2023/09/22 01:38:24;;;;;;;20.58;13.40;;;;;;;;;;5062763;28;20056;-61
2023/09/22 01:40:52;;;;;;;20.38;13.98;;;;;;;;;;5060415;28;20140;-60
2023/09/22 01:43:18;;;;;;;20.23;14.32;;;;;;;;;;5044595;28;20514;-58
2023/09/22 01:45:44;;;;;;;22.73;14.93;;;;;;;;;;5050840;28;20053;-60
2023/09/22 01:48:11;;;;;;;22.38;15.93;;;;;;;;;;5057995;28;20243;-60
2023/09/22 01:50:40;;;;;;;25.52;16.17;;;;;;;;;;5059710;28;20427;-60
2023/09/22 01:53:10;;;;;;;25.35;17.75;;;;;;;;;;5064209;28;20939;-60
2023/09/22 01:55:37;;;;;;;28.50;17.13;;;;;;;;;;5063078;28;20088;-60
2023/09/22 01:58:11;;;;;;;27.80;17.38;;;;;;;;;;5062243;28;20057;-59
2023/09/22 02:00:38;;;;;;;27.88;16.65;;;;;;;;;;5062980;28;20513;-60
2023/09/22 02:03:08;;;;;;;26.08;17.48;;;;;;;;;;5063258;28;20048;-58
2023/09/22 02:05:35;;;;;;;24.95;16.45;;;;;;;;;;5046928;28;20057;-59
2023/09/22 02:08:02;;;;;;;26.83;17.85;;;;;;;;;;5062924;28;20076;-59
2023/09/22 02:10:28;;;;;;;27.38;17.48;;;;;;;;;;5063737;28;20053;-59
2023/09/22 02:12:55;;;;;;;34.70;19.05;;;;;;;;;;5063014;28;20053;-60
2023/09/22 02:15:21;;;;;;;33.05;20.33;;;;;;;;;;5057276;28;20411;-60
2023/09/22 02:17:47;;;;;;;30.30;17.88;;;;;;;;;;5052272;28;20577;-60
2023/09/22 02:22:45;;;;;;;34.33;20.63;;;;;;;;;;5062640;28;20053;-59
2023/09/22 02:25:12;;;;;;;34.63;19.80;;;;;;;;;;5063163;28;20057;-60
2023/09/22 02:27:39;;;;;;;37.65;20.98;;;;;;;;;;5063677;28;20049;-60
2023/09/22 02:30:08;;;;;;;33.28;20.10;;;;;;;;;;5062253;28;20053;-59
2023/09/22 02:32:35;;;;;;;31.33;18.60;;;;;;;;;;5060136;28;20060;-60
2023/09/22 02:35:02;;;;;;;32.40;20.05;;;;;;;;;;5063747;28;20080;-59
2023/09/22 02:37:29;;;;;;;35.30;20.08;;;;;;;;;;5063193;28;20111;-60
2023/09/22 02:39:55;;;;;;;30.63;18.40;;;;;;;;;;5063311;28;21122;-58
2023/09/22 02:42:22;;;;;;;35.92;19.17;;;;;;;;;;5050786;28;20056;-59
2023/09/22 02:44:48;;;;;;;37.53;20.67;;;;;;;;;;5051772;28;20056;-60
2023/09/22 02:47:15;;;;;;;33.90;20.13;;;;;;;;;;5054318;28;20061;-60
2023/09/22 02:49:43;;;;;;;33.30;18.40;;;;;;;;;;5053592;28;20061;-59
2023/09/22 02:52:09;;;;;;;32.47;18.95;;;;;;;;;;5061075;28;20068;-59
2023/09/22 02:54:37;;;;;;;40.50;20.65;;;;;;;;;;5062297;28;20156;-61
2023/09/22 02:57:04;;;;;;;38.95;19.80;;;;;;;;;;5062496;28;20053;-59
2023/09/22 02:59:31;;;;;;;37.10;20.58;;;;;;;;;;5063581;28;20063;-59
2023/09/22 03:01:57;;;;;;;37.17;19.67;;;;;;;;;;5061855;28;20049;-60
2023/09/22 03:04:24;;;;;;;34.67;18.85;;;;;;;;;;5062650;28;20064;-60
2023/09/22 03:06:50;;;;;;;37.13;19.85;;;;;;;;;;5062677;28;20080;-59
2023/09/22 03:09:17;;;;;;;37.03;19.65;;;;;;;;;;5052278;28;20108;-60
2023/09/22 03:11:43;;;;;;;30.55;17.90;;;;;;;;;;5062047;28;20049;-57
2023/09/22 03:14:10;;;;;;;29.83;17.77;;;;;;;;;;5062731;28;20057;-59
2023/09/22 03:16:37;;;;;;;30.17;17.77;;;;;;;;;;5060431;28;20620;-59
2023/09/22 03:19:03;;;;;;;33.92;18.65;;;;;;;;;;5061439;28;20490;-60
2023/09/22 03:21:31;;;;;;;25.80;16.50;;;;;;;;;;5063629;28;20045;-59
2023/09/22 03:23:57;;;;;;;29.60;17.17;;;;;;;;;;5053045;28;20489;-60
2023/09/22 03:26:23;;;;;;;31.70;18.45;;;;;;;;;;5053716;28;20802;-58
2023/09/22 03:28:50;;;;;;;28.38;16.33;;;;;;;;;;5061903;28;20094;-60
2023/09/22 03:31:16;;;;;;;25.58;15.63;;;;;;;;;;5062966;28;20490;-60
2023/09/22 03:33:45;;;;;;;30.30;16.70;;;;;;;;;;5049356;28;20504;-59
2023/09/22 03:36:12;;;;;;;28.60;16.88;;;;;;;;;;5055908;28;20059;-59
2023/09/22 03:38:40;;;;;;;27.45;15.45;;;;;;;;;;5061187;28;20475;-60
2023/09/22 03:41:06;;;;;;;27.70;16.38;;;;;;;;;;5060100;28;20056;-59
2023/09/22 03:43:33;;;;;;;28.80;15.07;;;;;;;;;;5059407;28;20056;-59
2023/09/22 03:46:01;;;;;;;24.20;14.73;;;;;;;;;;5057439;28;20057;-59
2023/09/22 03:48:28;;;;;;;25.85;14.00;;;;;;;;;;5057914;28;20056;-60
2023/09/22 03:50:54;;;;;;;26.75;14.23;;;;;;;;;;5062296;28;20060;-59
2023/09/22 03:53:22;;;;;;;25.95;15.10;;;;;;;;;;5062680;28;20602;-60
2023/09/22 03:55:49;;;;;;;24.40;14.23;;;;;;;;;;5057515;28;20049;-59
2023/09/22 03:58:17;;;;;;;27.15;13.50;;;;;;;;;;5060044;28;20053;-60
2023/09/22 04:00:43;;;;;;;23.80;12.40;;;;;;;;;;5058611;28;20055;-59
2023/09/22 04:03:11;;;;;;;21.98;12.40;;;;;;;;;;5061380;28;20543;-57
2023/09/22 04:05:38;;;;;;;21.08;12.20;;;;;;;;;;5062521;28;20080;-60
2023/09/22 04:08:05;;;;;;;26.65;12.25;;;;;;;;;;5062646;28;20048;-60
2023/09/22 04:10:35;;;;;;;21.63;11.88;;;;;;;;;;5061199;28;20131;-59
2023/09/22 04:13:02;;;;;;;19.70;11.25;;;;;;;;;;5062602;28;20081;-59
2023/09/22 04:15:28;;;;;;;24.38;12.07;;;;;;;;;;5062519;28;20057;-59
2023/09/22 04:17:55;;;;;;;20.85;11.80;;;;;;;;;;5061511;28;20432;-59
2023/09/22 04:20:29;;;;;;;20.40;10.82;;;;;;;;;;5061885;28;20053;-60
2023/09/22 04:22:58;;;;;;;21.80;10.93;;;;;;;;;;5061765;28;20154;-60
2023/09/22 04:25:34;;;;;;;22.08;11.52;;;;;;;;;;5055485;28;20602;-58
2023/09/22 04:28:17;;;;;;;21.60;11.07;;;;;;;;;;5062268;28;20181;-60
2023/09/22 04:30:44;;;;;;;20.27;11.30;;;;;;;;;;5060901;28;20053;-59
2023/09/22 04:33:10;;;;;;;21.88;11.65;;;;;;;;;;5061945;28;20265;-59
2023/09/22 04:35:37;;;;;;;19.15;11.65;;;;;;;;;;5061551;28;20045;-59
2023/09/22 04:38:07;;;;;;;19.08;11.18;;;;;;;;;;5061992;28;20064;-59
2023/09/22 04:40:39;;;;;;;24.23;11.48;;;;;;;;;;5061398;28;20056;-59
2023/09/22 04:43:09;;;;;;;19.50;11.40;;;;;;;;;;5061825;28;20064;-59
2023/09/22 04:45:37;;;;;;;21.30;10.75;;;;;;;;;;5061847;28;20110;-60
2023/09/22 04:48:05;;;;;;;20.40;10.52;;;;;;;;;;5060746;28;20057;-59
2023/09/22 04:50:33;;;;;;;16.33;10.45;;;;;;;;;;5061765;28;20056;-59
2023/09/22 04:53:00;;;;;;;17.58;9.90;;;;;;;;;;5061152;28;20057;-58
2023/09/22 04:55:29;;;;;;;21.73;11.35;;;;;;;;;;5059424;28;20049;-58
2023/09/22 04:57:58;;;;;;;18.85;10.93;;;;;;;;;;5061434;28;20265;-59
2023/09/22 05:00:27;;;;;;;17.83;10.25;;;;;;;;;;5060519;28;20490;-60
2023/09/22 05:02:53;;;;;;;20.73;10.38;;;;;;;;;;5061980;28;20495;-58
2023/09/22 05:05:22;;;;;;;16.58;10.48;;;;;;;;;;5061167;28;20053;-59
2023/09/22 05:07:50;;;;;;;17.63;9.52;;;;;;;;;;5060643;28;20083;-59
2023/09/22 05:10:17;;;;;;;15.55;8.32;;;;;;;;;;5063427;28;20102;-59
2023/09/22 05:12:43;;;;;;;15.75;9.05;;;;;;;;;;5064290;28;20057;-59
2023/09/22 05:15:10;;;;;;;16.38;10.15;;;;;;;;;;5064865;28;20442;-60
2023/09/22 05:17:36;;;;;;;13.52;9.00;;;;;;;;;;5062914;28;20504;-59
2023/09/22 05:20:05;;;;;;;16.13;9.38;;;;;;;;;;5065362;28;20052;-60
2023/09/22 05:22:32;;;;;;;19.52;9.05;;;;;;;;;;5065095;28;20144;-59
2023/09/22 05:24:58;;;;;;;15.23;8.35;;;;;;;;;;5064528;28;20573;-59
2023/09/22 05:27:25;;;;;;;28.55;9.57;;;;;;;;;;5064552;28;20302;-60
2023/09/22 05:29:52;;;;;;;16.33;8.80;;;;;;;;;;5063380;28;20148;-59
2023/09/22 05:32:19;;;;;;;16.15;9.00;;;;;;;;;;5063746;28;20056;-60
2023/09/22 05:34:46;;;;;;;16.38;8.43;;;;;;;;;;5064734;28;20053;-59
2023/09/22 05:37:12;;;;;;;13.00;7.85;;;;;;;;;;5063448;28;20504;-60
2023/09/22 05:39:39;;;;;;;19.67;7.90;;;;;;;;;;5063245;28;20123;-59
2023/09/22 05:42:06;;;;;;;16.10;8.70;;;;;;;;;;5064064;28;20736;-60
2023/09/22 05:44:32;;;;;;;16.85;7.78;;;;;;;;;;5064926;28;20064;-59
2023/09/22 05:47:00;;;;;;;13.18;7.68;;;;;;;;;;5063997;28;20056;-60
2023/09/22 05:49:27;;;;;;;12.02;6.82;;;;;;;;;;5064424;28;20260;-59
2023/09/22 05:51:54;;;;;;;14.32;7.18;;;;;;;;;;5063362;28;20111;-59
2023/09/22 05:54:21;;;;;;;13.10;7.40;;;;;;;;;;5064999;28;20057;-60
2023/09/22 05:56:47;;;;;;;17.00;7.55;;;;;;;;;;5063437;28;20562;-59
2023/09/22 05:59:14;;;;;;;12.65;6.55;;;;;;;;;;5063342;28;20637;-60
2023/09/22 06:01:40;;;;;;;10.65;6.97;;;;;;;;;;5061930;28;20060;-60
2023/09/22 06:04:09;;;;;;;16.20;6.50;;;;;;;;;;5063707;28;20084;-59
2023/09/22 06:06:35;;;;;;;13.93;7.53;;;;;;;;;;5064520;28;20123;-60
2023/09/22 06:09:10;;;;;;;11.00;6.32;;;;;;;;;;5059079;28;20064;-59
2023/09/22 06:11:41;;;;;;;9.70;6.17;;;;;;;;;;5052871;28;20518;-59
2023/09/22 06:14:07;;;;;;;7.97;5.38;;;;;;;;;;5063079;28;20056;-59
2023/09/22 06:16:34;;;;;;;8.75;5.72;;;;;;;;;;5064540;28;20586;-60
2023/09/22 06:19:00;;;;;;;12.25;6.13;;;;;;;;;;5064169;28;20587;-59
2023/09/22 06:21:30;;;;;;;10.30;5.72;;;;;;;;;;5061033;28;20081;-58
2023/09/22 06:23:56;;;;;;;12.10;6.47;;;;;;;;;;5063297;28;20131;-58
2023/09/22 06:26:23;;;;;;;10.25;5.05;;;;;;;;;;5061885;28;20093;-59
2023/09/22 06:28:49;;;;;;;6.75;5.28;;;;;;;;;;5063221;28;20527;-60
2023/09/22 06:31:16;;;;;;;7.40;4.90;;;;;;;;;;5059412;28;20161;-59
2023/09/22 06:33:43;;;;;;;10.15;4.45;;;;;;;;;;5061612;28;20530;-60
2023/09/22 06:36:09;;;;;;;9.38;5.13;;;;;;;;;;5063396;28;20158;-59
2023/09/22 06:38:35;;;;;;;7.97;4.22;;;;;;;;;;5061865;28;20052;-58
2023/09/22 06:41:03;;;;;;;5.70;3.90;;;;;;;;;;5063754;28;20071;-59
2023/09/22 06:43:31;;;;;;;8.65;3.97;;;;;;;;;;5062742;28;20052;-59
2023/09/22 06:46:02;;;;;;;9.13;3.70;;;;;;;;;;5058491;28;20451;-58
2023/09/22 06:48:30;;;;;;;5.38;3.17;;;;;;;;;;5060148;28;20431;-59
2023/09/22 06:50:59;;;;;;;5.22;3.47;;;;;;;;;;5063765;28;20057;-60
2023/09/22 06:53:27;;;;;;;7.32;3.17;;;;;;;;;;5062781;28;20049;-59
2023/09/22 06:56:02;;;;;;;5.95;4.28;;;;;;;;;;5067631;28;20500;-60
2023/09/22 06:58:29;;;;;;;7.60;3.60;;;;;;;;;;5063360;28;20561;-59
2023/09/22 07:00:56;;;;;;;5.82;3.13;;;;;;;;;;5062948;28;20565;-60
2023/09/22 07:03:23;;;;;;;5.00;3.55;;;;;;;;;;5058037;28;20076;-60
2023/09/22 07:05:49;;;;;;;7.88;3.15;;;;;;;;;;5065925;28;20456;-60
2023/09/22 07:08:16;;;;;;;6.15;3.45;;;;;;;;;;5062916;28;20045;-60
2023/09/22 07:10:42;;;;;;;5.70;3.10;;;;;;;;;;5043725;28;20132;-60
2023/09/22 07:13:09;;;;;;;4.63;2.75;;;;;;;;;;5062645;28;20534;-59
2023/09/22 07:15:36;;;;;;;8.52;3.55;;;;;;;;;;5061623;28;20063;-58
2023/09/22 07:18:04;;;;;;;6.57;3.70;;;;;;;;;;5061459;28;20064;-58
2023/09/22 07:20:32;;;;;;;5.70;3.13;;;;;;;;;;5063055;28;20055;-60
2023/09/22 07:22:58;;;;;;;5.15;2.90;;;;;;;;;;5061942;28;20048;-59
2023/09/22 07:25:26;;;;;;;7.88;3.20;;;;;;;;;;5070276;28;20971;-60
2023/09/22 07:27:53;;;;;;;3.13;2.67;;;;;;;;;;5071417;28;20111;-60
2023/09/22 07:30:20;;;;;;;6.20;3.13;;;;;;;;;;5062756;28;20057;-60
2023/09/22 07:32:47;;;;;;;7.68;2.95;;;;;;;;;;5060467;28;20128;-60
2023/09/22 07:35:14;;;;;;;5.40;2.97;;;;;;;;;;5062113;28;20067;-60
2023/09/22 07:37:41;;;;;;;6.18;2.90;;;;;;;;;;5061751;28;20100;-60
2023/09/22 07:40:09;;;;;;;7.13;2.97;;;;;;;;;;5062471;28;20053;-58
2023/09/22 07:42:38;;;;;;;3.33;2.30;;;;;;;;;;5061114;28;20059;-59
2023/09/22 07:45:06;;;;;;;4.07;2.70;;;;;;;;;;5062819;28;20618;-60
2023/09/22 07:47:34;;;;;;;4.38;2.45;;;;;;;;;;5061895;28;20056;-60
2023/09/22 07:50:01;;;;;;;4.03;2.85;;;;;;;;;;5063017;28;20063;-58
2023/09/22 07:52:28;;;;;;;4.93;3.00;;;;;;;;;;5061238;28;20122;-58
2023/09/22 07:54:56;;;;;;;3.20;2.90;;;;;;;;;;5062922;28;20098;-59
2023/09/22 07:57:22;;;;;;;4.07;2.80;;;;;;;;;;5061142;28;20057;-60
2023/09/22 07:59:49;;;;;;;2.97;2.47;;;;;;;;;;5055655;28;20052;-59
2023/09/22 08:02:17;;;;;;;3.90;2.50;;;;;;;;;;5058339;28;20065;-60
2023/09/22 08:04:43;;;;;;;2.67;2.25;;;;;;;;;;5057314;28;20142;-60
2023/09/22 08:07:10;;;;;;;2.88;2.08;;;;;;;;;;5062670;28;20055;-59
2023/09/22 08:09:37;;;;;;;11.95;2.78;;;;;;;;;;5058158;28;20060;-61
2023/09/22 08:12:05;;;;;;;3.28;2.60;;;;;;;;;;5061026;28;20140;-59
2023/09/22 08:14:32;;;;;;;3.08;2.20;;;;;;;;;;5060351;28;20153;-60
2023/09/22 08:17:18;;;;;;;4.28;2.47;;;;;;;;;;5062363;28;20081;-59
2023/09/22 08:19:45;;;;;;;3.47;2.60;;;;;;;;;;5061645;28;20056;-58
2023/09/22 08:22:11;;;;;;;3.03;2.10;;;;;;;;;;5060650;28;20151;-59
2023/09/22 08:24:38;;;;;;;2.10;1.90;;;;;;;;;;5059922;28;20168;-60
2023/09/22 08:27:05;;;;;;;5.63;2.20;;;;;;;;;;5060762;28;20053;-60
2023/09/22 08:29:32;;;;;;;4.50;2.47;;;;;;;;;;5062487;28;20052;-60
2023/09/22 08:31:59;;;;;;;2.70;2.17;;;;;;;;;;5059009;28;20582;-60
2023/09/22 08:34:25;;;;;;;3.38;2.08;;;;;;;;;;5054733;28;20041;-60
2023/09/22 08:36:52;;;;;;;2.63;2.30;;;;;;;;;;5051839;28;20057;-60
2023/09/22 08:39:19;;;;;;;3.13;2.20;;;;;;;;;;5060757;28;20049;-60
2023/09/22 08:41:45;;;;;;;4.25;2.78;;;;;;;;;;5060512;28;20053;-60
2023/09/22 08:44:12;;;;;;;6.30;2.55;;;;;;;;;;5057573;28;20060;-59
2023/09/22 08:46:39;;;;;;;4.07;2.60;;;;;;;;;;5058134;28;20053;-57
2023/09/22 08:49:06;;;;;;;4.85;2.35;;;;;;;;;;5063127;28;20057;-58
2023/09/22 08:51:32;;;;;;;3.22;2.40;;;;;;;;;;5061339;28;20068;-58
2023/09/22 08:53:59;;;;;;;4.35;2.65;;;;;;;;;;5051073;28;20060;-59
2023/09/22 08:56:25;;;;;;;2.65;2.45;;;;;;;;;;5060539;28;20126;-59
2023/09/22 08:58:52;;;;;;;3.15;2.65;;;;;;;;;;5059363;28;20111;-58
2023/09/22 09:01:19;;;;;;;3.83;2.30;;;;;;;;;;5060480;28;20897;-58
2023/09/22 09:03:46;;;;;;;7.03;2.75;;;;;;;;;;5058359;28;20487;-59
2023/09/22 09:06:17;;;;;;;2.80;2.47;;;;;;;;;;5061636;28;20524;-59
2023/09/22 09:09:02;;;;;;;5.38;2.20;;;;;;;;;;5059841;28;20492;-59
2023/09/22 09:11:28;;;;;;;2.95;2.38;;;;;;;;;;5058519;28;20134;-60
2023/09/22 09:13:55;;;;;;;2.45;2.25;;;;;;;;;;5054415;28;20735;-60
2023/09/22 09:16:31;;;;;;;2.60;2.40;;;;;;;;;;5063934;28;20546;-57
2023/09/22 09:19:16;;;;;;;2.40;2.20;;;;;;;;;;5063701;28;20060;-59
2023/09/22 09:22:02;;;;;;;2.22;2.03;;;;;;;;;;5062637;28;20110;-58
2023/09/22 09:24:30;;;;;;;2.25;2.13;;;;;;;;;;5060109;28;20728;-59
2023/09/22 09:26:56;;;;;;;4.43;2.17;;;;;;;;;;5064180;28;20659;-59
2023/09/22 09:29:27;;;;;;;2.65;2.45;;;;;;;;;;5062184;28;20111;-59
2023/09/22 09:31:55;;;;;;;2.47;2.30;;;;;;;;;;5056858;28;20147;-60
2023/09/22 09:34:36;;;;;;;3.67;2.35;;;;;;;;;;5058894;28;20760;-59
2023/09/22 09:37:12;;;;;;;2.60;2.10;;;;;;;;;;5064113;28;20060;-60
2023/09/22 09:39:46;;;;;;;3.75;2.25;;;;;;;;;;5065052;28;20053;-59
2023/09/22 09:42:14;;;;;;;2.60;2.38;;;;;;;;;;5063642;28;20060;-60
2023/09/22 09:44:44;;;;;;;5.22;2.40;;;;;;;;;;5063683;28;20103;-60
2023/09/22 09:47:12;;;;;;;2.40;2.20;;;;;;;;;;5063348;28;20535;-60
2023/09/22 09:49:39;;;;;;;4.03;1.85;;;;;;;;;;5064005;28;20609;-60
2023/09/22 09:52:09;;;;;;;2.10;1.90;;;;;;;;;;5063056;28;20064;-59
2023/09/22 09:54:39;;;;;;;2.92;2.63;;;;;;;;;;5064081;28;20051;-59
2023/09/22 09:57:08;;;;;;;2.88;2.63;;;;;;;;;;5064101;28;20053;-59
2023/09/22 09:59:34;;;;;;;5.43;2.40;;;;;;;;;;5063521;28;20516;-59
2023/09/22 10:02:01;;;;;;;5.03;2.28;;;;;;;;;;5065115;28;20458;-59
2023/09/22 10:04:28;;;;;;;2.78;2.17;;;;;;;;;;5062856;28;20102;-61
2023/09/22 10:06:55;;;;;;;3.55;2.00;;;;;;;;;;5064220;28;20053;-60
2023/09/22 10:09:21;;;;;;;2.88;2.20;;;;;;;;;;5064378;28;20075;-59
2023/09/22 10:11:48;;;;;;;3.35;2.60;;;;;;;;;;5063238;28;20121;-59
2023/09/22 10:14:33;;;;;;;2.30;2.10;;;;;;;;;;5063977;28;20545;-60
2023/09/22 10:17:00;;;;;;;2.55;2.30;;;;;;;;;;5062746;28;20052;-60
2023/09/22 10:19:42;;;;;;;4.15;2.28;;;;;;;;;;5063530;28;20060;-60
2023/09/22 10:22:11;;;;;;;3.80;2.03;;;;;;;;;;5063177;28;20520;-60
2023/09/22 10:24:38;;;;;;;3.58;2.40;;;;;;;;;;5062941;28;20057;-60
2023/09/22 10:27:08;;;;;;;2.17;2.00;;;;;;;;;;5062715;28;20056;-60
2023/09/22 10:29:35;;;;;;;4.85;2.28;;;;;;;;;;5062164;28;20084;-60
2023/09/22 10:32:17;;;;;;;3.05;1.90;;;;;;;;;;5063723;28;20053;-59
2023/09/22 10:34:44;;;;;;;2.22;1.92;;;;;;;;;;5062405;28;20144;-60
2023/09/22 10:37:10;;;;;;;4.25;2.20;;;;;;;;;;5063271;28;20534;-59
2023/09/22 10:39:49;;;;;;;2.13;1.92;;;;;;;;;;5063369;28;20053;-59
2023/09/22 10:42:17;;;;;;;6.25;2.40;;;;;;;;;;5057184;28;20157;-59
2023/09/22 10:44:58;;;;;;;2.10;1.90;;;;;;;;;;5063274;28;20057;-60
2023/09/22 10:47:34;;;;;;;4.07;1.95;;;;;;;;;;5064047;28;20068;-60
2023/09/22 10:50:11;;;;;;;2.50;2.03;;;;;;;;;;5064196;28;20088;-60
2023/09/22 10:52:38;;;;;;;4.65;1.67;;;;;;;;;;5062669;28;20107;-60
2023/09/22 10:55:06;;;;;;;2.83;1.50;;;;;;;;;;5062888;28;20077;-60
2023/09/22 10:57:33;;;;;;;3.08;1.50;;;;;;;;;;5062723;28;20119;-60
2023/09/22 11:00:01;;;;;;;3.80;1.52;;;;;;;;;;5063564;28;20057;-60
2023/09/22 11:02:27;;;;;;;4.53;2.15;;;;;;;;;;5061949;28;20476;-58
2023/09/22 11:04:55;;;;;;;1.80;1.42;;;;;;;;;;5062582;28;20525;-60
2023/09/22 11:07:34;;;;;;;2.10;1.85;;;;;;;;;;5062799;28;20076;-59
2023/09/22 11:10:02;;;;;;;3.72;1.80;;;;;;;;;;5063812;28;20075;-60
2023/09/22 11:12:28;;;;;;;3.50;1.92;;;;;;;;;;5062334;28;20143;-60
2023/09/22 11:14:55;;;;;;;2.33;1.80;;;;;;;;;;5063473;28;20045;-60
2023/09/22 11:17:22;;;;;;;3.30;1.70;;;;;;;;;;5062714;28;20491;-60
2023/09/22 11:19:58;;;;;;;1.40;1.30;;;;;;;;;;5062480;28;20084;-60
2023/09/22 11:22:24;;;;;;;2.58;1.70;;;;;;;;;;5062481;28;20582;-61
2023/09/22 11:24:52;;;;;;;1.50;1.40;;;;;;;;;;5062657;28;20543;-60
2023/09/22 11:27:19;;;;;;;1.63;1.52;;;;;;;;;;5062395;28;20064;-60
2023/09/22 11:29:45;;;;;;;3.15;1.50;;;;;;;;;;5062268;28;20539;-59
2023/09/22 11:32:12;;;;;;;1.25;1.13;;;;;;;;;;5062713;28;20140;-59
2023/09/22 11:34:48;;;;;;;3.47;1.80;;;;;;;;;;5060696;28;20208;-60
2023/09/22 11:37:35;;;;;;;2.28;1.40;;;;;;;;;;5063086;28;20056;-61
2023/09/22 11:40:12;;;;;;;3.03;1.45;;;;;;;;;;5062656;28;20077;-60
2023/09/22 11:42:39;;;;;;;1.88;1.30;;;;;;;;;;5060262;28;20045;-60
2023/09/22 11:45:06;;;;;;;1.75;1.48;;;;;;;;;;5062067;28;20077;-60
2023/09/22 11:47:32;;;;;;;5.78;1.38;;;;;;;;;;5062715;28;20119;-60
2023/09/22 11:49:59;;;;;;;4.10;1.33;;;;;;;;;;5062939;28;20045;-60
2023/09/22 11:52:29;;;;;;;1.30;1.20;;;;;;;;;;5061817;28;20142;-59
2023/09/22 11:54:57;;;;;;;1.23;1.15;;;;;;;;;;5060728;28;20127;-59
2023/09/22 11:57:23;;;;;;;1.40;1.17;;;;;;;;;;5062306;28;20053;-59
2023/09/22 11:59:57;;;;;;;2.10;1.23;;;;;;;;;;5062809;28;20056;-58
2023/09/22 12:02:24;;;;;;;1.98;1.10;;;;;;;;;;5061507;28;20059;-60
2023/09/22 12:04:52;;;;;;;1.17;1.08;;;;;;;;;;5055773;28;20064;-60
2023/09/22 12:07:19;;;;;;;4.32;1.15;;;;;;;;;;5051717;28;20049;-61
2023/09/22 12:09:46;;;;;;;1.20;1.10;;;;;;;;;;5044948;28;20059;-61
2023/09/22 12:12:12;;;;;;;1.40;1.30;;;;;;;;;;5062559;28;20496;-61
2023/09/22 12:14:39;;;;;;;2.55;1.25;;;;;;;;;;5062125;28;20057;-61
2023/09/22 12:17:06;;;;;;;1.20;1.10;;;;;;;;;;5061385;28;20539;-60
2023/09/22 12:19:32;;;;;;;2.33;1.20;;;;;;;;;;5063296;28;20059;-61
2023/09/22 12:21:59;;;;;;;1.55;1.15;;;;;;;;;;5066706;28;20502;-60
2023/09/22 12:24:25;;;;;;;1.45;1.08;;;;;;;;;;5071375;28;20052;-60
2023/09/22 12:26:52;;;;;;;1.55;1.00;;;;;;;;;;5072396;28;20060;-60
2023/09/22 12:29:18;;;;;;;3.45;1.00;;;;;;;;;;5065961;28;20504;-60
2023/09/22 12:31:45;;;;;;;1.02;0.95;;;;;;;;;;5055463;28;20432;-59
2023/09/22 12:34:11;;;;;;;1.48;1.10;;;;;;;;;;5065741;28;20048;-60
2023/09/22 12:36:38;;;;;;;0.90;0.90;;;;;;;;;;5060360;28;20157;-60
2023/09/22 12:39:05;;;;;;;1.30;1.20;;;;;;;;;;5054311;28;20064;-59
2023/09/22 12:41:32;;;;;;;1.17;1.08;;;;;;;;;;5063430;28;20629;-59
2023/09/22 12:44:00;;;;;;;1.42;1.10;;;;;;;;;;5065064;28;20163;-60
2023/09/22 12:46:27;;;;;;;3.40;0.80;;;;;;;;;;5065478;28;20057;-60
2023/09/22 12:48:53;;;;;;;1.63;1.10;;;;;;;;;;5064604;28;20470;-61
2023/09/22 12:51:20;;;;;;;1.67;1.25;;;;;;;;;;5062062;28;20061;-60
2023/09/22 12:53:47;;;;;;;0.98;0.95;;;;;;;;;;5063995;28;20123;-61
2023/09/22 12:56:14;;;;;;;1.17;1.10;;;;;;;;;;5063931;28;20143;-60
2023/09/22 12:58:40;;;;;;;1.95;0.93;;;;;;;;;;5063782;28;20585;-60
2023/09/22 13:01:10;;;;;;;1.45;1.00;;;;;;;;;;5065181;28;20173;-60
2023/09/22 13:03:37;;;;;;;1.08;1.00;;;;;;;;;;5062816;28;20583;-60
2023/09/22 13:06:07;;;;;;;2.92;1.05;;;;;;;;;;5064017;28;20053;-61
2023/09/22 13:08:33;;;;;;;3.67;1.00;;;;;;;;;;5064697;28;20053;-60
2023/09/22 13:11:00;;;;;;;4.38;1.10;;;;;;;;;;5056498;28;20053;-61
2023/09/22 13:13:30;;;;;;;2.03;1.00;;;;;;;;;;5062345;28;20076;-60
2023/09/22 13:15:57;;;;;;;1.52;1.02;;;;;;;;;;5065538;28;20966;-61
2023/09/22 13:18:24;;;;;;;2.35;1.30;;;;;;;;;;5064002;28;20108;-60
2023/09/22 13:20:50;;;;;;;1.83;1.10;;;;;;;;;;5073079;28;20063;-61
2023/09/22 13:23:16;;;;;;;1.15;1.02;;;;;;;;;;5076678;28;20135;-60
2023/09/22 13:25:44;;;;;;;2.75;1.00;;;;;;;;;;5062993;28;20057;-61
2023/09/22 13:28:11;;;;;;;1.75;1.00;;;;;;;;;;5064941;28;20052;-61
2023/09/22 13:30:39;;;;;;;1.90;0.93;;;;;;;;;;5062311;28;20049;-61
2023/09/22 13:33:06;;;;;;;1.30;1.00;;;;;;;;;;5063160;28;20056;-60
2023/09/22 13:35:33;;;;;;;2.03;1.00;;;;;;;;;;5064582;28;20447;-59
2023/09/22 13:38:01;;;;;;;1.75;1.10;;;;;;;;;;5065204;28;20076;-61
2023/09/22 13:40:31;;;;;;;2.08;1.02;;;;;;;;;;5063710;28;20156;-62
2023/09/22 13:42:58;;;;;;;1.35;0.95;;;;;;;;;;5063673;28;20061;-61
2023/09/22 13:45:25;;;;;;;3.25;1.05;;;;;;;;;;5064053;28;20064;-61
2023/09/22 13:47:51;;;;;;;2.42;1.30;;;;;;;;;;5065303;28;20134;-60
2023/09/22 13:50:18;;;;;;;2.67;1.10;;;;;;;;;;5065206;28;20568;-61
2023/09/22 13:52:44;;;;;;;2.80;1.35;;;;;;;;;;5057286;28;20052;-60
2023/09/22 13:55:11;;;;;;;1.63;0.80;;;;;;;;;;5063759;28;20068;-61
2023/09/22 13:57:38;;;;;;;1.50;1.40;;;;;;;;;;5063609;28;20523;-60
2023/09/22 14:00:10;;;;;;;3.50;1.63;;;;;;;;;;5062659;28;20059;-60
2023/09/22 14:02:38;;;;;;;1.27;0.90;;;;;;;;;;5063651;28;20553;-60
2023/09/22 14:05:06;;;;;;;1.63;0.82;;;;;;;;;;5063961;28;20111;-60
2023/09/22 14:07:32;;;;;;;2.03;1.23;;;;;;;;;;5064150;28;20073;-60
2023/09/22 14:10:00;;;;;;;4.53;0.90;;;;;;;;;;5065020;28;20065;-61
2023/09/22 14:12:27;;;;;;;2.38;1.00;;;;;;;;;;5062088;28;20138;-60
2023/09/22 14:14:55;;;;;;;1.13;0.80;;;;;;;;;;5062123;28;20153;-61
2023/09/22 14:17:22;;;;;;;1.42;0.90;;;;;;;;;;5060586;28;20053;-60
2023/09/22 14:19:49;;;;;;;1.10;1.00;;;;;;;;;;5061657;28;20056;-61
2023/09/22 14:22:16;;;;;;;1.77;0.95;;;;;;;;;;5065242;28;20136;-61
2023/09/22 14:24:46;;;;;;;3.45;0.77;;;;;;;;;;5058634;28;20068;-59
2023/09/22 14:27:13;;;;;;;3.05;1.05;;;;;;;;;;5063191;28;20053;-62
2023/09/22 14:29:40;;;;;;;2.33;0.80;;;;;;;;;;5062000;28;20519;-61
2023/09/22 14:32:06;;;;;;;3.05;0.90;;;;;;;;;;5064431;28;20542;-60
2023/09/22 14:34:33;;;;;;;1.20;0.80;;;;;;;;;;5062704;28;20073;-61
2023/09/22 14:37:00;;;;;;;2.97;0.80;;;;;;;;;;5062222;28;20095;-61
2023/09/22 14:39:28;;;;;;;1.15;0.98;;;;;;;;;;5063113;28;20148;-61